createdAt,value
2023-03-27T00:00:16.784Z,7.50
2023-03-27T00:02:47.051Z,7.50
2023-03-27T00:05:16.460Z,7.50
2023-03-27T00:07:45.074Z,7.50
2023-03-27T00:10:15.446Z,7.50
2023-03-27T00:12:44.397Z,7.50
2023-03-27T00:15:17.387Z,7.50
2023-03-27T00:17:47.924Z,7.50
2023-03-27T00:20:17.263Z,7.50
2023-03-27T00:22:46.022Z,7.50
2023-03-27T00:25:17.174Z,7.50
2023-03-27T00:27:45.804Z,7.50
2023-03-27T00:30:15.729Z,7.50
2023-03-27T00:32:44.801Z,7.50
2023-03-27T00:35:13.504Z,7.50
2023-03-27T00:37:42.738Z,7.50
2023-03-27T00:40:17.734Z,7.50
2023-03-27T00:42:50.088Z,7.50
2023-03-27T00:45:20.165Z,7.50
2023-03-27T00:47:54.277Z,7.50
2023-03-27T00:50:28.445Z,7.50
2023-03-27T00:53:01.810Z,7.50
2023-03-27T00:55:34.662Z,7.50
2023-03-27T00:58:09.923Z,7.50
2023-03-27T01:00:39.137Z,7.50
2023-03-27T01:03:10.086Z,7.50
2023-03-27T01:05:39.452Z,7.50
2023-03-27T01:08:08.904Z,7.50
2023-03-27T01:10:48.227Z,7.40
2023-03-27T01:13:34.895Z,7.40
2023-03-27T01:16:11.100Z,7.40
2023-03-27T01:18:54.610Z,7.40
2023-03-27T01:25:14.131Z,7.40
2023-03-27T01:28:06.176Z,7.40
2023-03-27T01:30:39.666Z,7.40
2023-03-27T01:33:33.623Z,7.30
2023-03-27T01:36:34.895Z,7.30
2023-03-27T01:39:32.333Z,7.30
2023-03-27T01:42:08.567Z,7.40
2023-03-27T01:44:45.511Z,7.40
2023-03-27T01:47:23.031Z,7.40
2023-03-27T01:49:57.078Z,7.30
2023-03-27T01:52:29.438Z,7.30
2023-03-27T01:55:05.141Z,7.30
2023-03-27T01:57:49.132Z,7.30
2023-03-27T02:00:23.300Z,7.30
2023-03-27T02:02:56.952Z,7.20
2023-03-27T02:05:31.760Z,7.20
2023-03-27T02:08:07.618Z,7.20
2023-03-27T02:10:43.970Z,7.20
2023-03-27T02:13:21.458Z,7.20
2023-03-27T02:15:53.068Z,7.10
2023-03-27T02:18:29.552Z,7.10
2023-03-27T02:20:58.340Z,7.10
2023-03-27T02:23:30.935Z,7.10
2023-03-27T02:26:01.804Z,7.10
2023-03-27T02:29:03.488Z,7.10
2023-03-27T02:31:42.150Z,7.00
2023-03-27T02:34:41.629Z,7.00
2023-03-27T02:37:22.196Z,7.00
2023-03-27T02:40:43.632Z,7.00
2023-03-27T02:43:40.470Z,6.90
2023-03-27T02:46:17.325Z,6.90
2023-03-27T02:48:49.480Z,6.90
2023-03-27T02:51:24.002Z,6.90
2023-03-27T02:53:59.358Z,6.90
2023-03-27T02:56:38.574Z,6.90
2023-03-27T02:59:13.155Z,6.90
2023-03-27T03:01:45.498Z,6.90
2023-03-27T03:04:28.544Z,6.90
2023-03-27T03:07:16.295Z,6.90
2023-03-27T03:09:46.038Z,6.90
2023-03-27T03:12:14.595Z,6.90
2023-03-27T03:14:47.212Z,6.90
2023-03-27T03:17:17.703Z,6.80
2023-03-27T03:19:47.118Z,6.80
2023-03-27T03:22:15.972Z,6.80
2023-03-27T03:24:45.084Z,6.80
2023-03-27T03:27:21.021Z,6.80
2023-03-27T03:30:01.070Z,6.80
2023-03-27T03:32:34.105Z,6.80
2023-03-27T03:35:03.533Z,6.80
2023-03-27T03:37:38.550Z,6.80
2023-03-27T03:43:13.860Z,6.70
2023-03-27T03:45:43.784Z,6.70
2023-03-27T03:48:12.404Z,6.70
2023-03-27T03:50:40.947Z,6.70
2023-03-27T03:53:09.492Z,6.70
2023-03-27T03:55:38.434Z,6.70
2023-03-27T03:58:08.072Z,6.60
2023-03-27T04:00:39.471Z,6.60
2023-03-27T04:03:16.134Z,6.60
2023-03-27T04:05:45.710Z,6.60
2023-03-27T04:08:14.361Z,6.50
2023-03-27T04:10:51.881Z,6.50
2023-03-27T04:13:40.576Z,6.50
2023-03-27T04:18:55.608Z,6.40
2023-03-27T04:21:27.682Z,6.40
2023-03-27T04:24:02.412Z,6.40
2023-03-27T04:26:43.571Z,6.40
2023-03-27T04:29:43.573Z,6.40
2023-03-27T04:32:32.239Z,6.40
2023-03-27T04:35:21.824Z,6.40
2023-03-27T04:38:01.797Z,6.40
2023-03-27T04:43:47.977Z,6.40
2023-03-27T04:46:16.659Z,6.40
2023-03-27T04:48:46.261Z,6.40
2023-03-27T04:51:32.542Z,6.40
2023-03-27T04:54:04.886Z,6.40
2023-03-27T04:56:35.275Z,6.40
2023-03-27T04:59:06.232Z,6.40
2023-03-27T05:01:36.207Z,6.40
2023-03-27T05:04:30.234Z,6.30
2023-03-27T05:07:21.752Z,6.30
2023-03-27T05:09:50.368Z,6.30
2023-03-27T05:12:19.150Z,6.30
2023-03-27T05:14:51.416Z,6.30
2023-03-27T05:17:47.051Z,6.30
2023-03-27T05:20:18.466Z,6.30
2023-03-27T05:22:48.544Z,6.20
2023-03-27T05:25:27.869Z,6.20
2023-03-27T05:27:58.046Z,6.20
2023-03-27T05:30:30.631Z,6.10
2023-03-27T05:33:31.834Z,6.10
2023-03-27T05:36:00.597Z,6.00
2023-03-27T05:38:31.515Z,6.00
2023-03-27T05:41:20.202Z,5.90
2023-03-27T05:43:51.819Z,5.90
2023-03-27T05:46:22.605Z,5.90
2023-03-27T05:49:01.493Z,5.90
2023-03-27T05:51:31.645Z,5.80
2023-03-27T05:54:02.080Z,5.80
2023-03-27T05:56:43.412Z,5.80
2023-03-27T05:59:12.089Z,5.70
2023-03-27T06:01:41.962Z,5.70
2023-03-27T06:04:12.531Z,5.70
2023-03-27T06:07:05.168Z,5.60
2023-03-27T06:09:35.369Z,5.40
2023-03-27T06:12:26.641Z,5.30
2023-03-27T06:15:04.209Z,5.20
2023-03-27T06:17:40.671Z,5.10
2023-03-27T06:20:12.993Z,5.10
2023-03-27T06:22:46.720Z,5.10
2023-03-27T06:25:19.139Z,5.00
2023-03-27T06:27:49.629Z,4.90
2023-03-27T06:30:20.573Z,4.80
2023-03-27T06:33:09.343Z,4.80
2023-03-27T06:35:38.098Z,4.80
2023-03-27T06:38:19.022Z,4.70
2023-03-27T06:40:49.519Z,4.70
2023-03-27T06:43:22.378Z,4.80
2023-03-27T06:46:01.355Z,4.80
2023-03-27T06:49:02.441Z,4.80
2023-03-27T06:51:31.534Z,4.70
2023-03-27T06:54:00.253Z,4.60
2023-03-27T06:56:31.505Z,4.50
2023-03-27T06:59:18.342Z,4.50
2023-03-27T07:01:52.464Z,4.50
2023-03-27T07:04:36.180Z,4.40
2023-03-27T07:07:13.895Z,4.40
2023-03-27T07:09:44.937Z,4.20
2023-03-27T07:12:19.581Z,4.00
2023-03-27T07:14:49.681Z,3.90
2023-03-27T07:17:18.885Z,3.70
2023-03-27T07:19:50.099Z,3.60
2023-03-27T07:22:21.143Z,3.60
2023-03-27T07:24:50.039Z,3.50
2023-03-27T07:27:21.038Z,3.50
2023-03-27T07:29:49.734Z,3.30
2023-03-27T07:32:36.315Z,3.20
2023-03-27T07:35:06.586Z,3.00
2023-03-27T07:37:58.481Z,2.90
2023-03-27T07:40:40.744Z,2.90
2023-03-27T07:43:28.721Z,2.80
2023-03-27T07:45:58.261Z,2.70
2023-03-27T07:48:29.110Z,2.60
2023-03-27T07:53:35.672Z,2.60
2023-03-27T07:56:13.951Z,2.50
2023-03-27T07:58:48.964Z,2.30
2023-03-27T08:01:22.402Z,2.10
2023-03-27T08:03:52.396Z,1.90
2023-03-27T08:06:22.535Z,1.70
2023-03-27T08:08:52.025Z,1.50
2023-03-27T08:11:30.311Z,1.40
2023-03-27T08:33:20.548Z,1.20
2023-03-27T08:35:49.707Z,1.20
2023-03-27T08:38:26.086Z,1.20
2023-03-27T08:41:28.210Z,1.20
2023-03-27T08:44:16.943Z,1.30
2023-03-27T08:46:50.797Z,1.30
2023-03-27T08:49:22.140Z,1.30
2023-03-27T08:52:15.787Z,1.30
2023-03-27T08:54:53.609Z,1.30
2023-03-27T08:57:28.786Z,1.30
2023-03-27T09:00:09.169Z,1.30
2023-03-27T09:02:48.567Z,1.30
2023-03-27T09:05:22.557Z,1.30
2023-03-27T09:07:58.020Z,1.30
2023-03-27T09:10:41.490Z,1.30
2023-03-27T09:13:27.712Z,1.30
2023-03-27T09:16:02.394Z,1.20
2023-03-27T09:18:35.453Z,1.20
2023-03-27T09:21:13.881Z,1.20
2023-03-27T09:23:45.536Z,1.30
2023-03-27T09:26:21.554Z,1.30
2023-03-27T09:29:20.423Z,1.40
2023-03-27T09:31:57.224Z,1.40
2023-03-27T09:34:29.701Z,1.50
2023-03-27T09:37:02.570Z,1.70
2023-03-27T09:39:34.457Z,1.80
2023-03-27T09:42:27.639Z,1.80
2023-03-27T09:44:59.473Z,1.80
2023-03-27T09:47:36.262Z,1.80
2023-03-27T09:50:27.667Z,1.90
2023-03-27T09:53:14.356Z,1.90
2023-03-27T09:55:54.893Z,2.00
2023-03-27T09:58:40.884Z,2.00
2023-03-27T10:01:16.927Z,2.10
2023-03-27T10:03:53.172Z,2.20
2023-03-27T10:06:37.842Z,2.20
2023-03-27T10:09:25.246Z,2.20
2023-03-27T10:12:04.701Z,2.20
2023-03-27T10:14:36.727Z,2.20
2023-03-27T10:17:06.844Z,2.30
2023-03-27T10:19:41.508Z,2.40
2023-03-27T10:22:21.725Z,2.50
2023-03-27T10:24:54.861Z,2.50
2023-03-27T10:27:44.938Z,2.60
2023-03-27T10:30:36.021Z,2.50
2023-03-27T10:33:33.710Z,2.50
2023-03-27T10:36:15.657Z,2.40
2023-03-27T10:38:45.315Z,2.40
2023-03-27T10:41:34.519Z,2.40
2023-03-27T10:44:13.491Z,2.50
2023-03-27T10:46:49.957Z,2.50
2023-03-27T10:49:28.870Z,2.60
2023-03-27T10:52:08.602Z,2.60
2023-03-27T10:55:06.935Z,2.50
2023-03-27T10:57:38.233Z,2.50
2023-03-27T11:00:18.590Z,2.50
2023-03-27T11:03:03.106Z,2.50
2023-03-27T11:05:35.866Z,2.60
2023-03-27T11:08:15.034Z,2.70
2023-03-27T11:10:46.204Z,2.70
2023-03-27T11:13:28.145Z,2.80
2023-03-27T11:16:12.361Z,2.70
2023-03-27T11:19:26.573Z,2.80
2023-03-27T11:22:36.698Z,2.90
2023-03-27T11:25:20.075Z,2.90
2023-03-27T11:28:01.495Z,2.80
2023-03-27T11:30:48.123Z,2.90
2023-03-27T11:33:39.358Z,3.10
2023-03-27T11:36:23.975Z,3.00
2023-03-27T11:39:08.585Z,3.00
2023-03-27T11:41:37.558Z,3.10
2023-03-27T11:44:06.719Z,3.20
2023-03-27T11:47:25.130Z,3.40
2023-03-27T11:50:17.369Z,3.60
2023-03-27T11:52:58.504Z,3.70
2023-03-27T11:56:03.600Z,3.60
2023-03-27T11:58:40.961Z,3.50
2023-03-27T12:01:18.243Z,3.60
2023-03-27T12:04:29.229Z,3.60
2023-03-27T12:07:18.794Z,3.70
2023-03-27T12:10:13.727Z,3.70
2023-03-27T12:13:34.955Z,3.80
2023-03-27T12:16:44.113Z,3.70
2023-03-27T12:19:38.460Z,3.70
2023-03-27T12:22:30.403Z,3.90
2023-03-27T12:25:37.811Z,3.80
2023-03-27T12:29:23.283Z,3.80
2023-03-27T12:32:21.156Z,3.80
2023-03-27T12:34:55.719Z,3.80
2023-03-27T12:37:34.685Z,4.00
2023-03-27T12:40:14.921Z,4.10
2023-03-27T12:42:51.827Z,4.20
2023-03-27T12:45:24.011Z,4.00
2023-03-27T12:48:19.309Z,4.00
2023-03-27T12:50:58.663Z,4.00
2023-03-27T12:53:55.092Z,4.00
2023-03-27T12:56:34.948Z,4.00
2023-03-27T12:59:19.760Z,4.00
2023-03-27T13:02:09.090Z,3.90
2023-03-27T13:05:26.792Z,4.00
2023-03-27T13:08:16.900Z,4.10
2023-03-27T13:11:13.002Z,4.10
2023-03-27T13:14:07.717Z,4.20
2023-03-27T13:16:50.088Z,4.10
2023-03-27T13:19:30.749Z,4.00
2023-03-27T13:22:29.174Z,4.10
2023-03-27T13:25:22.966Z,4.10
2023-03-27T13:28:23.675Z,4.10
2023-03-27T13:31:05.948Z,4.10
2023-03-27T13:34:14.699Z,4.10
2023-03-27T13:36:48.822Z,4.20
2023-03-27T13:39:22.482Z,4.20
2023-03-27T13:42:08.007Z,4.10
2023-03-27T13:45:00.171Z,4.10
2023-03-27T13:48:09.719Z,4.00
2023-03-27T13:51:00.160Z,3.90
2023-03-27T13:53:55.592Z,3.80
2023-03-27T13:56:58.747Z,3.90
2023-03-27T14:00:06.410Z,4.00
2023-03-27T14:03:36.767Z,4.00
2023-03-27T14:06:40.246Z,4.10
2023-03-27T14:09:16.788Z,4.20
2023-03-27T14:12:20.767Z,4.20
2023-03-27T14:15:16.737Z,4.30
2023-03-27T14:18:15.092Z,4.50
2023-03-27T14:20:45.692Z,4.70
2023-03-27T14:23:23.402Z,4.60
2023-03-27T14:26:06.771Z,4.40
2023-03-27T14:28:49.581Z,4.40
2023-03-27T14:31:21.569Z,4.40
2023-03-27T14:34:09.930Z,4.50
2023-03-27T14:36:42.571Z,4.50
2023-03-27T14:39:40.876Z,4.60
2023-03-27T14:42:18.197Z,4.60
2023-03-27T14:44:50.602Z,4.60
2023-03-27T14:47:23.081Z,4.70
2023-03-27T14:49:57.733Z,4.60
2023-03-27T14:52:39.400Z,4.50
2023-03-27T14:55:32.405Z,4.50
2023-03-27T14:58:23.502Z,4.50
2023-03-27T15:00:55.015Z,4.40
2023-03-27T15:03:27.930Z,4.50
2023-03-27T15:06:04.679Z,4.50
2023-03-27T15:08:50.013Z,4.60
2023-03-27T15:11:40.070Z,4.50
2023-03-27T15:14:18.784Z,4.50
2023-03-27T15:16:55.327Z,4.50
2023-03-27T15:19:30.190Z,4.40
2023-03-27T15:22:02.030Z,4.40
2023-03-27T15:24:39.910Z,4.40
2023-03-27T15:27:17.219Z,4.40
2023-03-27T15:29:49.626Z,4.40
2023-03-27T15:32:22.353Z,4.40
2023-03-27T15:34:58.088Z,4.40
2023-03-27T15:37:30.702Z,4.40
2023-03-27T15:40:36.759Z,4.40
2023-03-27T15:43:21.082Z,4.50
2023-03-27T15:46:15.000Z,4.50
2023-03-27T15:48:45.661Z,4.40
2023-03-27T15:51:30.118Z,4.40
2023-03-27T15:53:59.113Z,4.30
2023-03-27T15:56:35.830Z,4.40
2023-03-27T15:59:06.845Z,4.30
2023-03-27T16:01:38.239Z,4.30
2023-03-27T16:04:09.213Z,4.30
2023-03-27T16:06:42.082Z,4.30
2023-03-27T16:09:24.140Z,4.20
2023-03-27T16:11:55.310Z,4.20
2023-03-27T16:40:12.850Z,4.30
2023-03-27T16:42:42.422Z,4.30
2023-03-27T17:14:10.246Z,3.80
2023-03-27T17:16:39.891Z,3.70
2023-03-27T17:19:08.821Z,3.60
2023-03-27T17:21:37.393Z,3.60
2023-03-27T17:24:06.502Z,3.60
2023-03-27T17:26:36.432Z,3.60
2023-03-27T17:29:08.511Z,3.60
2023-03-27T17:31:39.153Z,3.60
2023-03-27T17:34:08.708Z,3.50
2023-03-27T17:36:44.898Z,3.40
2023-03-27T17:39:16.616Z,3.30
2023-03-27T17:41:45.203Z,3.20
2023-03-27T17:44:14.553Z,3.10
2023-03-27T17:46:44.561Z,3.10
2023-03-27T17:49:13.142Z,3.10
2023-03-27T17:51:41.742Z,3.00
2023-03-27T17:54:10.336Z,3.00
2023-03-27T17:56:40.636Z,3.00
2023-03-27T17:59:10.245Z,3.00
2023-03-27T18:01:38.818Z,2.90
2023-03-27T18:04:08.901Z,2.90
2023-03-27T18:06:38.140Z,2.90
2023-03-27T18:09:07.483Z,2.90
2023-03-27T18:11:47.342Z,2.90
2023-03-27T18:14:16.069Z,2.80
2023-03-27T18:16:44.806Z,2.80
2023-03-27T18:19:15.015Z,2.80
2023-03-27T18:21:43.603Z,2.80
2023-03-27T18:24:12.313Z,2.80
2023-03-27T18:26:41.754Z,2.70
2023-03-27T18:29:11.376Z,2.70
2023-03-27T18:31:40.004Z,2.70
2023-03-27T18:34:08.792Z,2.70
2023-03-27T18:36:38.722Z,2.70
2023-03-27T18:39:07.619Z,2.70
2023-03-27T18:41:50.817Z,2.60
2023-03-27T18:44:19.483Z,2.60
2023-03-27T18:46:48.058Z,2.50
2023-03-27T18:49:24.231Z,2.50
2023-03-27T18:51:55.095Z,2.40
2023-03-27T18:54:23.749Z,2.40
2023-03-27T18:56:52.985Z,2.40
2023-03-27T18:59:22.725Z,2.30
2023-03-27T19:01:51.294Z,2.30
2023-03-27T19:04:20.121Z,2.30
2023-03-27T19:06:48.809Z,2.30
2023-03-27T19:09:23.356Z,2.30
2023-03-27T19:11:57.388Z,2.20
2023-03-27T19:14:52.338Z,2.20
2023-03-27T19:17:48.502Z,2.10
2023-03-27T19:20:49.326Z,2.10
2023-03-27T19:23:33.334Z,2.10
2023-03-27T19:26:09.789Z,2.10
2023-03-27T19:28:42.447Z,2.10
2023-03-27T19:31:13.101Z,2.00
2023-03-27T19:33:42.962Z,2.00
2023-03-27T19:36:11.793Z,1.90
2023-03-27T19:38:40.353Z,1.90
2023-03-27T19:41:11.275Z,1.90
2023-03-27T19:43:39.866Z,1.80
2023-03-27T19:46:16.197Z,1.80
2023-03-27T19:48:45.697Z,1.80
2023-03-27T19:51:22.946Z,1.70
2023-03-27T19:53:53.321Z,1.70
2023-03-27T19:56:27.762Z,1.70
2023-03-27T19:58:56.336Z,1.70
2023-03-27T20:01:28.456Z,1.70
2023-03-27T20:03:58.195Z,1.60
2023-03-27T20:06:28.935Z,1.60
2023-03-27T20:09:00.115Z,1.60
2023-03-27T20:11:30.189Z,1.60
2023-03-27T20:13:59.035Z,1.50
2023-03-27T20:16:29.387Z,1.50
2023-03-27T20:19:04.634Z,1.50
2023-03-27T20:21:36.277Z,1.40
2023-03-27T20:24:10.149Z,1.40
2023-03-27T20:26:48.097Z,1.30
2023-03-27T20:29:22.211Z,1.20
2023-03-27T20:31:50.906Z,1.10
2023-03-27T20:34:22.726Z,1.20
2023-03-27T20:36:53.356Z,1.40
2023-03-27T20:39:44.770Z,1.50
2023-03-27T20:42:16.145Z,1.50
2023-03-27T20:44:45.473Z,1.60
2023-03-27T20:47:15.391Z,1.50
2023-03-27T20:49:49.133Z,1.40
2023-03-27T20:52:19.375Z,1.20
2023-03-27T20:54:48.169Z,1.10
2023-03-27T20:57:21.851Z,0.90
2023-03-27T20:59:50.971Z,0.80
2023-03-27T21:02:21.829Z,0.70
2023-03-27T21:04:50.463Z,0.70
2023-03-27T21:07:19.042Z,0.60
2023-03-27T21:09:48.140Z,0.50
2023-03-27T21:12:16.952Z,0.40
2023-03-27T21:14:46.962Z,0.30
2023-03-27T21:17:15.494Z,0.20
2023-03-27T21:19:44.101Z,0.20
2023-03-27T21:22:12.648Z,0.10
2023-03-27T21:24:41.963Z,0.20
2023-03-27T21:27:10.680Z,0.10
2023-03-27T21:29:39.353Z,0.10
2023-03-27T21:32:10.204Z,0.00
2023-03-27T21:34:38.789Z,0.00
2023-03-27T21:37:07.386Z,0.00
2023-03-27T21:39:35.954Z,0.10
2023-03-27T21:42:04.790Z,0.20
2023-03-27T21:44:33.378Z,0.20
2023-03-27T21:47:01.963Z,0.30
2023-03-27T21:49:31.921Z,0.30
2023-03-27T21:52:00.451Z,0.40
2023-03-27T21:54:29.012Z,0.50
2023-03-27T21:56:57.639Z,0.50
2023-03-27T21:59:27.339Z,0.50
2023-03-27T22:01:56.188Z,0.50
2023-03-27T22:04:26.120Z,0.50
2023-03-27T22:06:56.154Z,0.50
2023-03-27T22:09:24.697Z,0.50
2023-03-27T22:11:53.411Z,0.40
2023-03-27T22:14:22.001Z,0.40
2023-03-27T22:16:50.692Z,0.30
2023-03-27T22:19:19.320Z,0.30
2023-03-27T22:21:47.876Z,0.30
2023-03-27T22:24:18.003Z,0.30
2023-03-27T22:26:46.575Z,0.30
2023-03-27T22:29:15.523Z,0.30
2023-03-27T22:31:44.281Z,0.40
2023-03-27T22:34:12.938Z,0.40
2023-03-27T22:36:41.513Z,0.40
2023-03-27T22:39:10.131Z,0.40
2023-03-27T22:41:40.299Z,0.40
2023-03-27T22:44:08.850Z,0.40
2023-03-27T22:46:37.780Z,0.30
2023-03-27T22:49:06.573Z,0.30
2023-03-27T22:51:35.145Z,0.30
2023-03-27T22:54:03.769Z,0.30
2023-03-27T22:56:32.565Z,0.40
2023-03-27T23:15:08.438Z,0.60
2023-03-27T23:17:37.050Z,0.60
2023-03-27T23:20:06.359Z,0.60
2023-03-27T23:22:34.880Z,0.50
2023-03-27T23:25:03.466Z,0.50
2023-03-27T23:27:32.051Z,0.40
2023-03-27T23:30:00.841Z,0.30
2023-03-27T23:32:33.584Z,0.20
2023-03-27T23:35:02.202Z,0.10
2023-03-27T23:37:31.958Z,0.10
2023-03-27T23:40:00.723Z,0.00
2023-03-27T23:42:29.697Z,-0.10
2023-03-27T23:44:58.350Z,-0.10
2023-03-27T23:47:26.902Z,-0.10
2023-03-27T23:49:56.827Z,-0.20
2023-03-27T23:52:25.533Z,-0.20
2023-03-27T23:54:54.097Z,-0.10
2023-03-27T23:57:22.738Z,-0.10
2023-03-27T23:59:51.386Z,-0.10
